Time;durP1;ratioP1;P1;durP2;ratioP2;P2;SDS_P1;SDS_P2;PMS_P1;PMS_P2;Temp;Humidity;BMP_temperature;BMP_pressure;BME280_temperature;BME280_humidity;BME280_pressure;Samples;Min_cycle;Max_cycle;Signal;HPM_P1;HPM_P2
2023/05/24 05:51:02;;;;;;;4.97;1.98;;;;;;;;;;10506742;28;20499;-82
2023/05/24 05:56:03;;;;;;;4.88;2.08;;;;;;;;;;10470463;22;20481;-85
2023/05/24 06:01:07;;;;;;;;;;;;;;;;;;10336729;28;20432;-85
2023/05/24 06:06:09;;;;;;;6.57;2.15;;;;;;;;;;10336921;28;20448;-85
2023/05/24 06:11:13;;;;;;;6.78;2.78;;;;;;;;;;10334674;28;20089;-85
2023/05/24 06:16:14;;;;;;;7.95;2.45;;;;;;;;;;10338146;28;20030;-85
2023/05/24 06:21:15;;;;;;;5.82;2.13;;;;;;;;;;10334045;28;20061;-84
2023/05/24 06:26:17;;;;;;;6.22;1.92;;;;;;;;;;10336318;28;20023;-85
2023/05/24 06:31:18;;;;;;;7.45;2.25;;;;;;;;;;10336030;28;20027;-85
2023/05/24 06:36:19;;;;;;;8.60;2.55;;;;;;;;;;10356384;28;20070;-84
2023/05/24 06:41:21;;;;;;;8.52;2.20;;;;;;;;;;10335510;28;20358;-84
2023/05/24 06:46:22;;;;;;;8.25;2.58;;;;;;;;;;10335576;28;20038;-84
2023/05/24 06:51:23;;;;;;;4.68;2.10;;;;;;;;;;10335486;28;20032;-84
2023/05/24 06:56:25;;;;;;;11.60;4.20;;;;;;;;;;10341200;28;20458;-85
2023/05/24 07:01:26;;;;;;;8.50;2.70;;;;;;;;;;10315373;28;20050;-84
2023/05/24 07:06:27;;;;;;;7.38;2.30;;;;;;;;;;10310979;28;20023;-82
2023/05/24 07:11:28;;;;;;;8.70;3.00;;;;;;;;;;10309406;28;20077;-83
2023/05/24 07:16:30;;;;;;;8.13;3.00;;;;;;;;;;10311282;28;20066;-83
2023/05/24 07:21:31;;;;;;;6.90;2.47;;;;;;;;;;10312054;28;20027;-83
2023/05/24 07:26:32;;;;;;;8.98;3.60;;;;;;;;;;10311346;28;20118;-83
2023/05/24 07:31:39;;;;;;;10.88;5.55;;;;;;;;;;10312546;28;20125;-84
2023/05/24 07:36:41;;;;;;;14.25;8.00;;;;;;;;;;10316510;28;20033;-84
2023/05/24 07:41:42;;;;;;;17.73;9.95;;;;;;;;;;10312364;28;20023;-83
2023/05/24 07:46:43;;;;;;;18.50;12.10;;;;;;;;;;10313304;28;20031;-83
2023/05/24 07:51:44;;;;;;;12.05;4.55;;;;;;;;;;10320871;28;20031;-83
2023/05/24 07:56:45;;;;;;;14.88;9.80;;;;;;;;;;10325224;28;20050;-83
2023/05/24 08:01:47;;;;;;;11.30;5.18;;;;;;;;;;10319694;28;20045;-83
2023/05/24 08:06:48;;;;;;;17.55;10.32;;;;;;;;;;10306815;28;20082;-83
2023/05/24 08:11:49;;;;;;;13.15;7.75;;;;;;;;;;10307369;28;20023;-83
2023/05/24 08:16:50;;;;;;;8.13;4.97;;;;;;;;;;10319590;28;20109;-83
2023/05/24 08:21:51;;;;;;;12.43;4.70;;;;;;;;;;10323868;28;20057;-84
2023/05/24 08:26:52;;;;;;;12.60;5.65;;;;;;;;;;10337936;28;20019;-83
2023/05/24 08:31:53;;;;;;;12.25;6.57;;;;;;;;;;10333727;28;20035;-83
2023/05/24 08:36:54;;;;;;;14.70;6.53;;;;;;;;;;10307938;28;20081;-83
2023/05/24 08:41:56;;;;;;;9.48;5.20;;;;;;;;;;10305121;28;20162;-83
2023/05/24 08:46:58;;;;;;;7.25;3.90;;;;;;;;;;10305781;28;20086;-83
2023/05/24 08:52:00;;;;;;;9.35;4.45;;;;;;;;;;10309508;28;20027;-83
2023/05/24 08:57:12;;;;;;;8.65;3.78;;;;;;;;;;10317213;28;20035;-83
2023/05/24 09:02:14;;;;;;;9.00;3.35;;;;;;;;;;10319006;28;20038;-83
2023/05/24 09:07:22;;;;;;;8.48;3.20;;;;;;;;;;10311435;28;20046;-83
2023/05/24 09:12:31;;;;;;;8.00;3.60;;;;;;;;;;10307458;28;20027;-83
2023/05/24 09:17:34;;;;;;;17.10;10.73;;;;;;;;;;10303805;28;20035;-83
2023/05/24 09:22:37;;;;;;;8.27;2.92;;;;;;;;;;10303567;28;20051;-83
2023/05/24 09:27:38;;;;;;;9.65;3.50;;;;;;;;;;10303530;28;20168;-82
2023/05/24 09:32:40;;;;;;;8.45;3.55;;;;;;;;;;10288553;28;20401;-83
2023/05/24 09:37:41;;;;;;;10.07;3.00;;;;;;;;;;10301311;28;20027;-83
2023/05/24 09:42:42;;;;;;;5.20;2.72;;;;;;;;;;10304414;28;20496;-83
2023/05/24 09:47:47;;;;;;;9.82;3.92;;;;;;;;;;10303767;28;20125;-82
2023/05/24 09:52:48;;;;;;;7.68;3.53;;;;;;;;;;10301617;28;20027;-82
2023/05/24 09:58:08;;;;;;;8.18;3.60;;;;;;;;;;10301841;28;20042;-83
2023/05/24 10:03:13;;;;;;;11.80;3.53;;;;;;;;;;10303506;28;20030;-82
2023/05/24 10:08:17;;;;;;;7.63;3.38;;;;;;;;;;10302531;28;20030;-83
2023/05/24 10:13:18;;;;;;;6.93;3.25;;;;;;;;;;10300126;28;20027;-81
2023/05/24 10:18:19;;;;;;;11.93;5.30;;;;;;;;;;10301588;28;20030;-82
2023/05/24 10:23:20;;;;;;;5.30;2.80;;;;;;;;;;10303429;28;20019;-84
2023/05/24 10:28:22;;;;;;;6.63;2.83;;;;;;;;;;10310644;28;20026;-84
2023/05/24 10:33:23;;;;;;;7.97;3.10;;;;;;;;;;10307476;28;20027;-84
2023/05/24 10:38:25;;;;;;;7.93;3.20;;;;;;;;;;10314029;28;20491;-84
2023/05/24 10:43:26;;;;;;;4.60;2.50;;;;;;;;;;10312402;28;20117;-84
2023/05/24 10:48:27;;;;;;;6.68;3.08;;;;;;;;;;10312383;28;20030;-84
2023/05/24 10:53:28;;;;;;;5.95;3.22;;;;;;;;;;10313879;28;20093;-83
2023/05/24 10:58:48;;;;;;;6.10;2.50;;;;;;;;;;10312966;28;20023;-82
2023/05/24 11:03:49;;;;;;;5.50;2.53;;;;;;;;;;10310920;28;20026;-83
2023/05/24 11:08:50;;;;;;;11.40;4.18;;;;;;;;;;10309159;28;20098;-83
2023/05/24 11:13:58;;;;;;;6.93;2.78;;;;;;;;;;10308897;28;20125;-83
2023/05/24 11:19:16;;;;;;;6.13;3.05;;;;;;;;;;10309923;28;20475;-83
2023/05/24 11:24:18;;;;;;;6.32;2.65;;;;;;;;;;10308750;28;20389;-83
2023/05/24 11:29:21;;;;;;;5.70;2.42;;;;;;;;;;10307300;28;20065;-83
2023/05/24 11:34:23;;;;;;;8.85;2.92;;;;;;;;;;10305987;28;20106;-83
2023/05/24 11:39:24;;;;;;;11.18;3.22;;;;;;;;;;10308773;28;20114;-83
2023/05/24 11:44:27;;;;;;;10.98;3.40;;;;;;;;;;10319175;28;20027;-84
2023/05/24 11:49:33;;;;;;;7.53;3.22;;;;;;;;;;10308892;28;20106;-83
2023/05/24 11:59:36;;;;;;;10.80;3.60;;;;;;;;;;10367401;23;20487;-82
2023/05/24 12:04:38;;;;;;;6.85;2.90;;;;;;;;;;10377198;28;20030;-82
2023/05/24 12:09:39;;;;;;;7.22;3.05;;;;;;;;;;10375830;28;20017;-81
2023/05/24 12:14:40;;;;;;;7.10;2.70;;;;;;;;;;10356532;28;20559;-81
2023/05/24 12:19:42;;;;;;;6.60;2.83;;;;;;;;;;10342659;28;20172;-81
2023/05/24 12:24:43;;;;;;;8.60;3.40;;;;;;;;;;10342990;28;20053;-82
2023/05/24 12:29:44;;;;;;;8.27;4.18;;;;;;;;;;10346765;28;20623;-81
2023/05/24 12:34:45;;;;;;;8.82;2.92;;;;;;;;;;10356779;28;20045;-81
2023/05/24 12:39:46;;;;;;;8.80;3.50;;;;;;;;;;10346158;28;20026;-82
2023/05/24 12:44:51;;;;;;;7.45;2.70;;;;;;;;;;10347453;28;20093;-82
2023/05/24 12:49:52;;;;;;;6.72;2.78;;;;;;;;;;10345772;28;20500;-83
2023/05/24 12:54:53;;;;;;;7.68;3.22;;;;;;;;;;10345886;28;20125;-83
2023/05/24 12:59:54;;;;;;;7.75;2.75;;;;;;;;;;10346390;28;20069;-82
2023/05/24 13:04:55;;;;;;;5.07;2.67;;;;;;;;;;10344596;28;20357;-82
2023/05/24 13:09:57;;;;;;;4.88;2.45;;;;;;;;;;10345663;28;20062;-81
2023/05/24 13:14:58;;;;;;;9.13;4.03;;;;;;;;;;10346928;28;20033;-82
2023/05/24 13:20:03;;;;;;;6.40;3.15;;;;;;;;;;10344091;28;20117;-81
2023/05/24 13:25:04;;;;;;;10.32;4.47;;;;;;;;;;10342310;28;20019;-84
2023/05/24 13:30:07;;;;;;;7.97;3.53;;;;;;;;;;10342630;28;20030;-81
2023/05/24 13:35:08;;;;;;;11.15;3.40;;;;;;;;;;10343060;28;20127;-81
2023/05/24 13:40:10;;;;;;;11.05;5.20;;;;;;;;;;10342088;28;20393;-80
2023/05/24 13:45:11;;;;;;;10.48;3.20;;;;;;;;;;10344237;28;20023;-82
2023/05/24 13:50:12;;;;;;;7.22;3.20;;;;;;;;;;10344827;28;20037;-82
2023/05/24 13:55:14;;;;;;;4.30;2.40;;;;;;;;;;10346763;28;20030;-82
2023/05/24 14:00:16;;;;;;;10.35;3.33;;;;;;;;;;10345348;28;20030;-82
2023/05/24 14:05:17;;;;;;;8.32;2.80;;;;;;;;;;10344668;28;20015;-82
2023/05/24 14:10:19;;;;;;;5.88;2.65;;;;;;;;;;10347615;28;20471;-81
2023/05/24 14:15:20;;;;;;;9.25;3.30;;;;;;;;;;10349214;28;20439;-81
2023/05/24 14:20:21;;;;;;;9.82;3.70;;;;;;;;;;10351175;28;20084;-79
2023/05/24 14:25:22;;;;;;;8.25;2.95;;;;;;;;;;10348930;28;20034;-81
2023/05/24 14:30:23;;;;;;;7.72;2.60;;;;;;;;;;10352734;28;20030;-81
2023/05/24 14:35:24;;;;;;;8.23;3.75;;;;;;;;;;10351372;28;20030;-81
2023/05/24 14:40:25;;;;;;;10.10;3.47;;;;;;;;;;10352063;28;20030;-81
2023/05/24 14:45:26;;;;;;;6.15;2.67;;;;;;;;;;10351489;28;20049;-81
2023/05/24 14:50:27;;;;;;;10.15;4.22;;;;;;;;;;10349172;28;20066;-82
2023/05/24 14:55:28;;;;;;;9.98;3.50;;;;;;;;;;10355644;28;20058;-80
2023/05/24 15:00:29;;;;;;;8.93;3.88;;;;;;;;;;10355077;28;20449;-81
2023/05/24 15:05:30;;;;;;;9.15;3.53;;;;;;;;;;10350731;28;20030;-81
2023/05/24 15:10:32;;;;;;;10.10;4.50;;;;;;;;;;10371865;28;20062;-81
2023/05/24 15:15:33;;;;;;;8.13;3.42;;;;;;;;;;10372543;28;20491;-82
2023/05/24 15:20:34;;;;;;;7.30;3.33;;;;;;;;;;10372631;28;20034;-82
2023/05/24 15:25:35;;;;;;;8.13;2.90;;;;;;;;;;10371993;28;20031;-80
2023/05/24 15:30:36;;;;;;;8.73;3.50;;;;;;;;;;10375445;28;20109;-80
2023/05/24 15:35:37;;;;;;;11.68;4.20;;;;;;;;;;10361548;28;20041;-81
2023/05/24 15:40:40;;;;;;;8.13;3.72;;;;;;;;;;10365600;28;20034;-79
2023/05/24 15:45:42;;;;;;;14.93;6.75;;;;;;;;;;10364544;28;20022;-82
2023/05/24 15:50:43;;;;;;;15.15;7.53;;;;;;;;;;10359875;28;20033;-81
2023/05/24 15:55:45;;;;;;;13.55;6.20;;;;;;;;;;10360069;28;20112;-81
2023/05/24 16:00:47;;;;;;;26.95;14.20;;;;;;;;;;10362874;28;20026;-81
2023/05/24 16:05:48;;;;;;;20.50;10.18;;;;;;;;;;10356565;28;20030;-81
2023/05/24 16:10:49;;;;;;;12.65;6.28;;;;;;;;;;10354655;28;20034;-81
2023/05/24 16:15:50;;;;;;;11.57;6.00;;;;;;;;;;10352814;28;20503;-81
2023/05/24 16:20:51;;;;;;;8.07;3.67;;;;;;;;;;10359078;28;20377;-82
2023/05/24 16:25:52;;;;;;;9.00;3.38;;;;;;;;;;10366745;28;20044;-83
2023/05/24 16:30:55;;;;;;;10.75;3.80;;;;;;;;;;10357637;28;20027;-81
2023/05/24 16:36:00;;;;;;;9.82;3.60;;;;;;;;;;10357892;28;20117;-82
2023/05/24 16:41:04;;;;;;;8.63;4.53;;;;;;;;;;10354344;28;20031;-82
2023/05/24 16:46:06;;;;;;;6.28;3.20;;;;;;;;;;10354402;28;20109;-81
2023/05/24 16:51:07;;;;;;;10.45;4.50;;;;;;;;;;10357716;28;20120;-82
2023/05/24 16:56:08;;;;;;;6.78;3.50;;;;;;;;;;10360052;28;20042;-82
2023/05/24 17:01:09;;;;;;;7.82;3.40;;;;;;;;;;10367340;28;20030;-82
2023/05/24 17:06:10;;;;;;;5.63;3.03;;;;;;;;;;10373908;28;20030;-82
2023/05/24 17:11:13;;;;;;;7.45;3.10;;;;;;;;;;10358622;28;20038;-83
2023/05/24 17:16:14;;;;;;;6.70;3.13;;;;;;;;;;10355925;28;20053;-83
2023/05/24 17:21:15;;;;;;;8.50;3.70;;;;;;;;;;10355311;28;20063;-81
2023/05/24 17:26:17;;;;;;;6.15;2.80;;;;;;;;;;10347383;28;20133;-83
2023/05/24 17:31:18;;;;;;;7.15;2.97;;;;;;;;;;10348104;28;20097;-83
2023/05/24 17:36:19;;;;;;;6.22;2.60;;;;;;;;;;10349391;28;20103;-82
2023/05/24 17:41:20;;;;;;;7.60;3.42;;;;;;;;;;10364193;28;20023;-83
2023/05/24 17:46:21;;;;;;;5.43;2.55;;;;;;;;;;10358969;28;20125;-83
2023/05/24 17:51:23;;;;;;;8.75;3.53;;;;;;;;;;10358297;28;20034;-83
2023/05/24 17:56:24;;;;;;;7.10;3.55;;;;;;;;;;10357852;28;20041;-84
2023/05/24 18:01:26;;;;;;;7.10;2.92;;;;;;;;;;10356599;28;20124;-83
2023/05/24 18:06:27;;;;;;;6.97;3.45;;;;;;;;;;10354375;28;20027;-83
2023/05/24 18:11:29;;;;;;;6.65;3.15;;;;;;;;;;10362339;28;20041;-81
2023/05/24 18:16:30;;;;;;;5.43;2.63;;;;;;;;;;10378120;28;20041;-82
2023/05/24 18:21:32;;;;;;;6.10;2.83;;;;;;;;;;10377727;28;20057;-81
2023/05/24 18:26:33;;;;;;;4.72;2.30;;;;;;;;;;10377177;28;20370;-82
2023/05/24 18:31:35;;;;;;;4.93;2.58;;;;;;;;;;10367953;28;20388;-81
2023/05/24 18:36:36;;;;;;;6.30;2.83;;;;;;;;;;10364849;28;20027;-83
2023/05/24 18:41:37;;;;;;;6.95;2.47;;;;;;;;;;10363562;28;20027;-81
2023/05/24 18:46:41;;;;;;;5.18;2.40;;;;;;;;;;10366236;28;20027;-83
2023/05/24 18:51:42;;;;;;;7.28;2.88;;;;;;;;;;10354865;28;20034;-83
2023/05/24 18:56:44;;;;;;;4.10;2.40;;;;;;;;;;10361474;28;20030;-82
2023/05/24 19:01:45;;;;;;;7.50;3.13;;;;;;;;;;10363343;28;20030;-82
2023/05/24 19:06:46;;;;;;;6.05;2.75;;;;;;;;;;10364078;28;20050;-82
2023/05/24 19:11:48;;;;;;;4.25;2.10;;;;;;;;;;10363419;28;20019;-83
